Sacramento, California
Traffic Map
Current Weather Conditions
Sacramento, California
Clear
Clear
20°
Feels Like: 20°
Wind Chill: 20° Ceiling: Unl
Heat Index: 20° Visibility: 10mi
Dew Point: 14° Wind: 0mph
Humidity: 70% Direction: ° ()
Pressure: 29.99in Gusts: 0mph
Raw Report DataKSAC 241453Z 00000KT 10SM CLR 20/14 A2999 RMK AO2 SLP156 T02000144 53008
Traffic Incident Summary
Active as of:
Severity:
Category:
InformationThere was an issue retrieving the traffic information for this location. Please try a different location or try again shortly.
Advertisements
Track Severe Weather on mobile